Time;durP1;ratioP1;P1;durP2;ratioP2;P2;SDS_P1;SDS_P2;PMS_P1;PMS_P2;Temp;Humidity;BMP_temperature;BMP_pressure;BME280_temperature;BME280_humidity;BME280_pressure;Samples;Min_cycle;Max_cycle;Signal;HPM_P1;HPM_P2
2023/03/14 04:02:32;;;;;;;3.90;1.00;;;9.70;87.10;;;;;;5133980;23;20501;-76
2023/03/14 04:04:58;;;;;;;2.10;0.80;;;9.70;87.40;;;;;;4973826;28;20446;-76
2023/03/14 04:07:25;;;;;;;2.50;0.90;;;9.70;86.80;;;;;;4974015;28;20446;-76
2023/03/14 04:09:52;;;;;;;3.00;1.43;;;9.70;86.50;;;;;;4973836;28;20449;-75
2023/03/14 04:12:18;;;;;;;2.20;0.80;;;9.70;87.30;;;;;;4973339;28;20470;-77
2023/03/14 04:17:16;;;;;;;3.50;1.20;;;9.70;86.60;;;;;;4992586;28;20484;-73
2023/03/14 04:19:44;;;;;;;4.10;0.87;;;9.70;86.30;;;;;;4994789;28;20461;-73
2023/03/14 04:22:10;;;;;;;2.83;1.00;;;9.70;86.30;;;;;;4994435;28;20453;-71
2023/03/14 04:24:37;;;;;;;3.00;1.20;;;9.70;85.90;;;;;;4994313;28;20478;-72
2023/03/14 04:27:04;;;;;;;3.00;1.00;;;9.70;86.30;;;;;;4975402;28;20466;-73
2023/03/14 04:29:30;;;;;;;2.37;0.90;;;9.80;85.60;;;;;;4974269;28;20889;-72
2023/03/14 04:31:57;;;;;;;2.20;1.00;;;9.80;86.40;;;;;;4974165;28;20940;-73
2023/03/14 04:34:24;;;;;;;2.57;0.90;;;9.90;85.40;;;;;;4974953;28;20453;-72
2023/03/14 04:36:52;;;;;;;2.57;1.00;;;9.80;85.10;;;;;;4974131;28;20897;-72
2023/03/14 04:39:18;;;;;;;2.13;0.90;;;9.90;85.90;;;;;;4973857;28;21010;-72
2023/03/14 04:41:45;;;;;;;3.53;0.93;;;9.80;84.50;;;;;;4974003;28;20978;-72
2023/03/14 04:44:12;;;;;;;3.40;0.90;;;9.80;85.20;;;;;;4975743;28;20555;-72
2023/03/14 04:50:00;;;;;;;2.10;0.83;;;9.80;84.90;;;;;;4979788;28;20410;-71
2023/03/14 04:52:29;;;;;;;2.10;0.80;;;9.80;85.40;;;;;;4978602;28;20477;-72
2023/03/14 04:54:55;;;;;;;2.40;0.97;;;9.80;84.50;;;;;;4978867;28;20455;-73
2023/03/14 04:57:22;;;;;;;2.63;0.90;;;9.70;84.60;;;;;;4978329;28;20493;-72
2023/03/14 04:59:49;;;;;;;2.20;0.80;;;9.50;85.40;;;;;;4978808;28;20454;-72
2023/03/14 05:02:15;;;;;;;2.43;0.90;;;9.50;85.70;;;;;;4978179;28;20803;-71
2023/03/14 05:04:42;;;;;;;2.30;0.80;;;9.50;85.10;;;;;;4977922;28;20854;-73
2023/03/14 05:07:09;;;;;;;2.33;1.10;;;9.40;85.50;;;;;;4978154;28;20466;-72
2023/03/14 05:09:37;;;;;;;3.50;0.90;;;9.40;85.60;;;;;;4978482;28;20505;-72
2023/03/14 05:12:04;;;;;;;2.93;0.90;;;9.50;86.10;;;;;;4977968;28;21030;-73
2023/03/14 05:14:31;;;;;;;2.83;0.90;;;9.50;84.80;;;;;;4977137;28;20486;-72
2023/03/14 05:16:58;;;;;;;2.57;0.80;;;9.50;84.70;;;;;;4976862;28;20891;-72
2023/03/14 05:19:24;;;;;;;2.97;0.90;;;9.50;84.80;;;;;;4977136;28;20454;-72
2023/03/14 05:21:51;;;;;;;4.40;0.90;;;9.40;85.30;;;;;;4977366;28;20955;-72
2023/03/14 05:24:17;;;;;;;2.33;0.90;;;9.40;85.20;;;;;;4976871;28;20513;-73
2023/03/14 05:26:45;;;;;;;2.20;1.10;;;9.50;84.90;;;;;;4976756;28;20466;-72
2023/03/14 05:29:12;;;;;;;2.20;0.97;;;9.50;85.40;;;;;;4977283;28;20509;-71
2023/03/14 05:31:39;;;;;;;2.10;0.93;;;9.50;84.50;;;;;;4977172;28;20454;-72
2023/03/14 05:34:06;;;;;;;2.30;0.80;;;9.60;84.70;;;;;;4976549;28;20454;-72
2023/03/14 05:36:32;;;;;;;2.30;0.80;;;9.60;84.50;;;;;;4976071;28;21077;-72
2023/03/14 05:38:59;;;;;;;3.30;0.80;;;9.60;84.60;;;;;;4976787;28;20873;-72
2023/03/14 05:41:26;;;;;;;2.10;0.80;;;9.70;84.00;;;;;;4977502;28;20458;-73
2023/03/14 05:43:54;;;;;;;2.87;1.20;;;9.70;84.50;;;;;;4976239;28;20811;-72
2023/03/14 05:46:20;;;;;;;2.70;1.00;;;9.90;84.60;;;;;;4976147;28;20999;-72
2023/03/14 05:48:47;;;;;;;2.43;1.00;;;9.80;84.10;;;;;;4976741;28;20830;-72
2023/03/14 05:51:13;;;;;;;2.60;0.80;;;9.80;84.20;;;;;;4976246;28;21002;-71
2023/03/14 05:53:40;;;;;;;2.10;0.80;;;9.90;83.90;;;;;;4976339;28;21018;-73
2023/03/14 05:56:08;;;;;;;2.53;0.90;;;9.80;83.40;;;;;;4976151;28;20482;-73
2023/03/14 05:58:35;;;;;;;2.60;1.10;;;9.80;83.50;;;;;;4976328;28;20935;-72
2023/03/14 06:01:05;;;;;;;3.50;0.87;;;9.90;83.40;;;;;;4976458;28;20446;-72
2023/03/14 06:03:32;;;;;;;2.20;0.90;;;9.90;83.70;;;;;;4976592;28;20435;-72
2023/03/14 06:05:58;;;;;;;2.03;0.80;;;9.80;83.00;;;;;;4976543;28;20885;-73
2023/03/14 06:08:25;;;;;;;2.40;1.13;;;9.80;83.30;;;;;;4976664;28;20513;-72
2023/03/14 06:10:52;;;;;;;3.00;1.27;;;9.70;83.20;;;;;;4976077;28;20943;-72
2023/03/14 06:13:19;;;;;;;3.27;1.00;;;9.70;83.90;;;;;;4976679;28;20450;-72
2023/03/14 06:15:46;;;;;;;2.47;0.90;;;9.80;83.90;;;;;;4975932;28;20502;-72
2023/03/14 06:18:14;;;;;;;2.27;0.97;;;9.90;83.80;;;;;;4976539;28;20454;-72
2023/03/14 06:20:41;;;;;;;3.50;1.30;;;9.90;82.60;;;;;;4976334;28;20497;-72
2023/03/14 06:23:09;;;;;;;2.00;0.80;;;9.80;83.00;;;;;;4976263;28;20466;-72
2023/03/14 06:25:36;;;;;;;2.30;1.03;;;9.90;83.50;;;;;;4976283;28;20470;-72
2023/03/14 06:28:03;;;;;;;2.10;0.80;;;9.80;82.50;;;;;;4976394;28;20516;-73
2023/03/14 06:30:30;;;;;;;4.40;0.80;;;9.70;82.80;;;;;;4976596;28;20714;-73
2023/03/14 06:32:57;;;;;;;3.63;0.87;;;9.80;83.10;;;;;;4976520;28;20450;-73
2023/03/14 06:35:25;;;;;;;2.67;0.90;;;9.80;81.80;;;;;;4975952;28;20482;-72
2023/03/14 06:37:51;;;;;;;1.93;0.77;;;9.70;82.60;;;;;;4976049;28;20494;-73
2023/03/14 06:40:18;;;;;;;2.10;0.80;;;9.80;83.30;;;;;;4976469;28;20505;-73
2023/03/14 06:42:45;;;;;;;2.10;0.80;;;9.90;81.50;;;;;;4976267;28;20454;-72
2023/03/14 06:45:12;;;;;;;2.30;1.00;;;10.00;81.40;;;;;;4976224;28;20481;-72
2023/03/14 06:47:39;;;;;;;2.10;0.73;;;10.20;81.30;;;;;;4976284;28;20451;-73
2023/03/14 06:50:07;;;;;;;2.20;0.80;;;10.90;80.50;;;;;;4976718;28;20450;-73
2023/03/14 06:52:35;;;;;;;2.20;0.70;;;11.80;77.10;;;;;;4976510;28;20454;-73
2023/03/14 06:55:02;;;;;;;2.90;0.77;;;12.40;74.50;;;;;;4976540;28;20490;-73
2023/03/14 06:57:28;;;;;;;2.73;0.90;;;12.80;73.50;;;;;;4976527;28;20537;-73
2023/03/14 06:59:55;;;;;;;2.20;0.70;;;13.00;73.80;;;;;;4976044;28;20870;-73
2023/03/14 07:02:23;;;;;;;2.17;0.70;;;13.10;73.00;;;;;;4976519;28;20450;-73
2023/03/14 07:04:49;;;;;;;2.40;0.80;;;13.30;72.30;;;;;;4976262;28;20450;-74
2023/03/14 07:07:16;;;;;;;1.90;0.70;;;12.70;72.30;;;;;;4976061;28;20517;-73
2023/03/14 07:09:44;;;;;;;1.80;0.70;;;12.10;73.60;;;;;;4975334;28;20450;-72
2023/03/14 07:12:11;;;;;;;2.30;0.73;;;11.80;75.40;;;;;;4975279;28;20450;-72
2023/03/14 07:14:37;;;;;;;1.80;0.57;;;12.10;74.90;;;;;;4975145;28;20876;-73
2023/03/14 07:17:04;;;;;;;2.00;0.70;;;12.40;73.60;;;;;;4974541;28;20862;-73
2023/03/14 07:19:31;;;;;;;2.10;0.60;;;12.30;74.10;;;;;;4975139;28;20470;-73
2023/03/14 07:21:57;;;;;;;4.63;2.27;;;11.90;74.40;;;;;;4975048;28;20844;-72
2023/03/14 07:24:24;;;;;;;2.00;0.80;;;11.60;75.50;;;;;;4975062;28;20438;-71
2023/03/14 07:26:53;;;;;;;2.80;0.77;;;12.10;75.40;;;;;;4974881;28;20471;-72
2023/03/14 07:29:20;;;;;;;2.00;0.70;;;14.00;72.30;;;;;;4975188;28;20454;-73
2023/03/14 07:31:46;;;;;;;5.17;0.90;;;15.80;64.90;;;;;;4974735;28;20524;-72
2023/03/14 07:34:13;;;;;;;1.83;0.70;;;17.50;62.30;;;;;;4974925;28;20866;-72
2023/03/14 07:36:40;;;;;;;1.90;0.80;;;18.60;59.50;;;;;;4974945;28;20494;-73
2023/03/14 07:39:07;;;;;;;2.00;0.70;;;19.30;56.40;;;;;;4974517;28;20874;-72
2023/03/14 07:41:34;;;;;;;1.80;0.70;;;18.00;56.00;;;;;;4974850;28;20462;-73
2023/03/14 07:44:02;;;;;;;2.73;0.80;;;16.40;59.80;;;;;;4974721;28;20466;-73
2023/03/14 07:46:29;;;;;;;1.90;0.70;;;15.50;62.20;;;;;;4975501;28;20573;-75
2023/03/14 07:48:56;;;;;;;2.20;0.80;;;15.10;64.90;;;;;;4975487;28;20505;-74
2023/03/14 07:51:22;;;;;;;3.93;0.83;;;14.60;65.60;;;;;;4975421;28;20446;-73
2023/03/14 07:53:49;;;;;;;2.40;0.80;;;14.50;65.60;;;;;;4976131;28;20528;-74
2023/03/14 07:56:15;;;;;;;2.00;0.73;;;14.30;67.00;;;;;;4975038;28;20891;-73
2023/03/14 07:58:42;;;;;;;2.00;0.70;;;14.10;67.50;;;;;;4974916;28;20454;-74
2023/03/14 08:01:10;;;;;;;2.30;0.80;;;14.30;67.00;;;;;;4976006;28;20458;-74
2023/03/14 08:03:37;;;;;;;2.87;0.90;;;13.80;67.30;;;;;;4976196;28;20504;-74
2023/03/14 08:06:04;;;;;;;2.30;0.70;;;13.00;69.40;;;;;;4976401;28;20476;-74
2023/03/14 08:08:30;;;;;;;2.83;0.70;;;12.90;71.70;;;;;;4975724;28;20461;-73
2023/03/14 08:11:03;;;;;;;2.23;0.90;;;13.00;71.50;;;;;;4976661;28;20450;-74
2023/03/14 08:13:29;;;;;;;2.03;0.77;;;12.90;71.60;;;;;;4975366;28;20430;-73
2023/03/14 08:15:56;;;;;;;1.80;0.60;;;12.80;72.70;;;;;;4975473;28;20489;-74
2023/03/14 08:18:24;;;;;;;2.43;0.87;;;12.80;70.90;;;;;;4976425;28;20532;-74
2023/03/14 08:20:51;;;;;;;2.20;0.70;;;12.70;71.40;;;;;;4979397;28;20541;-75
2023/03/14 08:23:17;;;;;;;1.80;0.60;;;12.40;72.00;;;;;;4979188;28;20458;-73
2023/03/14 08:25:44;;;;;;;2.13;0.80;;;12.50;72.40;;;;;;4979589;28;20517;-75
2023/03/14 08:28:11;;;;;;;2.20;0.70;;;12.70;70.70;;;;;;4979403;28;20458;-73
2023/03/14 08:30:37;;;;;;;2.63;0.80;;;12.80;71.90;;;;;;4979267;28;20450;-74
2023/03/14 08:33:04;;;;;;;1.90;0.70;;;13.00;69.80;;;;;;4979231;28;20457;-74
2023/03/14 08:35:32;;;;;;;2.27;0.70;;;13.10;68.60;;;;;;4979588;28;20466;-74
2023/03/14 08:37:59;;;;;;;1.97;0.70;;;13.40;70.20;;;;;;4979022;28;20860;-74
2023/03/14 08:40:25;;;;;;;1.80;0.60;;;13.60;68.90;;;;;;4979238;28;21014;-75
2023/03/14 08:42:52;;;;;;;1.83;0.70;;;13.80;66.40;;;;;;4978666;28;20504;-75
2023/03/14 08:45:19;;;;;;;2.03;0.70;;;14.00;67.10;;;;;;4978502;28;20478;-73
2023/03/14 08:47:46;;;;;;;2.00;0.70;;;13.90;66.30;;;;;;4978166;28;20457;-74
2023/03/14 08:50:13;;;;;;;2.50;0.70;;;13.90;66.40;;;;;;4978430;28;20450;-74
2023/03/14 08:52:41;;;;;;;2.73;0.70;;;13.70;67.60;;;;;;4978676;28;20808;-74
2023/03/14 08:55:09;;;;;;;2.00;0.70;;;13.30;68.40;;;;;;4979077;28;20470;-74
2023/03/14 08:57:36;;;;;;;2.20;0.70;;;13.00;68.80;;;;;;4979141;28;20573;-74
2023/03/14 09:00:10;;;;;;;2.00;0.60;;;13.00;69.80;;;;;;4980776;28;20458;-75
2023/03/14 09:02:36;;;;;;;1.90;0.60;;;13.00;70.90;;;;;;4979582;28;20439;-73
2023/03/14 09:05:04;;;;;;;2.00;0.70;;;13.00;71.20;;;;;;4980731;28;20446;-74
2023/03/14 09:07:30;;;;;;;1.80;0.60;;;13.10;72.50;;;;;;4980059;28;20943;-74
2023/03/14 09:09:58;;;;;;;2.13;0.73;;;12.90;71.70;;;;;;4979068;28;20458;-73
2023/03/14 09:12:25;;;;;;;1.80;0.60;;;12.30;74.20;;;;;;4978425;28;20478;-75
2023/03/14 09:14:52;;;;;;;1.80;0.70;;;12.00;75.50;;;;;;4978399;28;20458;-74
2023/03/14 09:17:18;;;;;;;2.00;0.70;;;12.00;77.70;;;;;;4977029;28;21147;-72
2023/03/14 09:19:45;;;;;;;1.90;0.63;;;11.90;76.60;;;;;;4977004;28;20869;-74
2023/03/14 09:22:12;;;;;;;1.90;0.60;;;11.90;76.90;;;;;;4978531;28;20948;-74
2023/03/14 09:24:38;;;;;;;2.40;0.73;;;11.80;76.60;;;;;;4978975;28;20458;-74
2023/03/14 09:27:07;;;;;;;1.80;0.70;;;11.70;75.90;;;;;;4977785;28;20466;-74
2023/03/14 09:29:33;;;;;;;1.80;0.60;;;11.70;76.70;;;;;;4977184;28;20534;-74
2023/03/14 09:32:00;;;;;;;1.90;0.70;;;11.80;75.90;;;;;;4976978;28;20462;-75
2023/03/14 09:34:27;;;;;;;1.83;0.60;;;12.00;76.00;;;;;;4977236;28;20446;-74
2023/03/14 09:36:54;;;;;;;1.90;0.70;;;12.00;76.00;;;;;;4976861;28;20485;-74
2023/03/14 09:39:20;;;;;;;2.10;0.70;;;12.00;74.60;;;;;;4977070;28;20454;-74
2023/03/14 09:41:50;;;;;;;1.73;0.60;;;12.00;74.10;;;;;;4976825;28;20457;-74
2023/03/14 09:44:22;;;;;;;2.37;0.60;;;12.00;74.30;;;;;;4976934;28;20474;-74
2023/03/14 09:46:53;;;;;;;1.80;0.60;;;12.00;73.90;;;;;;4978064;28;20481;-74
2023/03/14 09:49:23;;;;;;;2.00;0.60;;;12.00;74.00;;;;;;4979929;28;20427;-74
2023/03/14 09:51:53;;;;;;;2.00;0.60;;;11.90;74.10;;;;;;4980703;28;20462;-74
2023/03/14 09:54:32;;;;;;;2.00;0.60;;;12.10;74.50;;;;;;4980629;28;20435;-75
2023/03/14 09:56:58;;;;;;;1.70;0.60;;;12.10;73.80;;;;;;4976357;28;20584;-75
2023/03/14 09:59:28;;;;;;;1.70;0.60;;;11.90;74.30;;;;;;4976324;28;20454;-75
2023/03/14 10:01:56;;;;;;;2.00;0.60;;;11.80;74.30;;;;;;4976141;28;20458;-73
2023/03/14 10:04:24;;;;;;;2.33;0.80;;;11.70;74.80;;;;;;4976508;28;20459;-73
2023/03/14 10:06:50;;;;;;;1.80;0.60;;;11.70;75.40;;;;;;4975923;28;20502;-72
2023/03/14 10:09:24;;;;;;;1.80;0.60;;;11.80;75.40;;;;;;4976147;28;20450;-72
2023/03/14 10:11:53;;;;;;;1.90;0.70;;;12.10;74.60;;;;;;4976531;28;20443;-73
2023/03/14 10:14:32;;;;;;;2.40;0.70;;;12.20;74.10;;;;;;4976824;28;20458;-74
2023/03/14 10:17:07;;;;;;;2.20;0.70;;;12.50;75.00;;;;;;5094989;23;20490;-75
2023/03/14 10:19:35;;;;;;;3.43;0.70;;;12.70;73.20;;;;;;4975496;28;20516;-74
2023/03/14 10:22:03;;;;;;;1.90;0.70;;;12.80;73.50;;;;;;4975478;28;20767;-75
2023/03/14 10:24:31;;;;;;;1.80;0.60;;;13.20;72.30;;;;;;4975406;28;20450;-76
2023/03/14 10:27:02;;;;;;;1.73;0.60;;;13.30;71.90;;;;;;4974948;28;21010;-76
2023/03/14 10:29:31;;;;;;;2.97;0.73;;;13.30;70.80;;;;;;4975289;28;20469;-75
2023/03/14 10:32:00;;;;;;;2.10;0.70;;;13.60;72.00;;;;;;4975225;28;20529;-76
2023/03/14 10:34:29;;;;;;;2.10;0.60;;;13.90;70.30;;;;;;4975025;28;20456;-76
2023/03/14 10:36:59;;;;;;;1.80;0.67;;;14.10;71.00;;;;;;4975238;28;20466;-76
2023/03/14 10:39:38;;;;;;;1.77;0.63;;;14.10;67.90;;;;;;4975328;28;20450;-76
2023/03/14 10:42:12;;;;;;;1.80;0.70;;;13.90;68.00;;;;;;4974280;28;20500;-76
2023/03/14 10:44:42;;;;;;;1.80;0.60;;;13.70;69.10;;;;;;4975386;28;20434;-76
2023/03/14 10:47:18;;;;;;;2.93;0.70;;;13.50;69.30;;;;;;4975157;28;20466;-77
2023/03/14 10:49:44;;;;;;;1.73;0.57;;;13.20;70.30;;;;;;4979358;28;20430;-76
2023/03/14 10:52:18;;;;;;;1.70;0.60;;;13.00;70.80;;;;;;4975894;28;20450;-75
2023/03/14 10:54:48;;;;;;;1.80;0.60;;;12.60;72.60;;;;;;4976458;28;20439;-76
2023/03/14 10:57:15;;;;;;;1.90;0.60;;;12.60;73.80;;;;;;4994393;28;20481;-75
2023/03/14 10:59:44;;;;;;;2.10;0.60;;;12.70;73.20;;;;;;4989659;28;20449;-75
2023/03/14 11:02:48;;;;;;;2.50;0.60;;;12.60;73.90;;;;;;4979619;28;20478;-76
2023/03/14 11:05:30;;;;;;;1.83;0.60;;;12.60;73.90;;;;;;4977174;28;20772;-77
2023/03/14 11:08:02;;;;;;;1.90;0.70;;;12.30;74.80;;;;;;4974787;28;20438;-77
2023/03/14 11:10:33;;;;;;;2.00;0.60;;;12.50;75.00;;;;;;4975086;28;20438;-77
2023/03/14 11:13:13;;;;;;;1.87;0.63;;;12.50;73.80;;;;;;4974629;28;20445;-77
2023/03/14 11:15:47;;;;;;;1.90;0.70;;;12.50;74.50;;;;;;4974318;28;20477;-75
2023/03/14 11:18:45;;;;;;;2.00;0.70;;;12.50;74.00;;;;;;4974469;28;20471;-77
2023/03/14 11:21:15;;;;;;;1.80;0.60;;;12.40;73.90;;;;;;4969219;28;20467;-77
2023/03/14 11:23:55;;;;;;;2.03;0.67;;;12.50;75.30;;;;;;4974675;28;20430;-78
2023/03/14 11:26:33;;;;;;;1.90;0.60;;;12.40;75.30;;;;;;4975179;28;20473;-78
2023/03/14 11:29:10;;;;;;;2.00;0.70;;;12.50;74.90;;;;;;4975053;28;20916;-78
2023/03/14 11:31:41;;;;;;;1.90;0.60;;;12.50;75.40;;;;;;4974843;28;20916;-79
2023/03/14 11:34:16;;;;;;;1.80;0.60;;;12.50;76.00;;;;;;4974846;28;20489;-79
2023/03/14 11:36:52;;;;;;;1.80;0.60;;;12.40;75.70;;;;;;4974391;28;20585;-79
2023/03/14 11:39:20;;;;;;;1.80;0.70;;;12.10;77.50;;;;;;4974463;28;20814;-78
2023/03/14 11:41:49;;;;;;;1.80;0.60;;;12.10;78.00;;;;;;4974243;28;20493;-78
2023/03/14 11:44:20;;;;;;;1.87;0.60;;;11.80;78.80;;;;;;4973781;28;20943;-77
2023/03/14 11:46:53;;;;;;;1.90;0.70;;;11.70;79.90;;;;;;4973755;28;21042;-77
2023/03/14 11:49:31;;;;;;;1.70;0.50;;;11.80;79.60;;;;;;4974839;28;20503;-77
2023/03/14 11:52:02;;;;;;;1.80;0.60;;;11.60;79.20;;;;;;4974245;28;20468;-78
2023/03/14 11:54:39;;;;;;;2.00;0.60;;;11.70;79.90;;;;;;4977179;28;20514;-77
2023/03/14 11:57:11;;;;;;;1.77;0.60;;;11.70;80.50;;;;;;4977860;28;20481;-77
2023/03/14 11:59:48;;;;;;;1.80;0.60;;;11.60;79.80;;;;;;4979511;28;20480;-78
2023/03/14 12:02:22;;;;;;;1.80;0.60;;;11.70;79.50;;;;;;4979631;28;20449;-76
2023/03/14 12:04:58;;;;;;;1.90;0.77;;;11.70;79.40;;;;;;4979426;28;20848;-77
2023/03/14 12:07:35;;;;;;;1.80;0.60;;;11.70;80.30;;;;;;4978708;28;21009;-78
2023/03/14 12:10:04;;;;;;;1.80;0.60;;;11.80;81.20;;;;;;4978186;28;20434;-77
2023/03/14 12:12:31;;;;;;;2.00;0.60;;;11.70;79.50;;;;;;4979315;28;20454;-78
2023/03/14 12:15:00;;;;;;;1.80;0.60;;;11.70;80.30;;;;;;4977872;28;20450;-78
2023/03/14 12:17:35;;;;;;;1.80;0.60;;;11.70;80.50;;;;;;4977627;28;20478;-78
2023/03/14 12:20:07;;;;;;;1.80;0.60;;;11.80;79.80;;;;;;4977903;28;20438;-78
2023/03/14 12:22:36;;;;;;;1.80;0.60;;;11.80;79.10;;;;;;4978402;28;20442;-77
2023/03/14 12:25:07;;;;;;;1.80;0.60;;;12.10;79.10;;;;;;4979838;28;20449;-77
2023/03/14 12:28:05;;;;;;;2.37;0.60;;;12.20;77.50;;;;;;4984713;28;20433;-77
2023/03/14 12:30:34;;;;;;;1.77;0.60;;;12.60;75.00;;;;;;4985373;28;20854;-77
2023/03/14 12:33:36;;;;;;;1.90;0.60;;;13.00;74.00;;;;;;4980615;28;20434;-75
2023/03/14 12:36:20;;;;;;;1.90;0.70;;;12.80;68.80;;;;;;4978285;28;20473;-76
2023/03/14 12:38:59;;;;;;;1.87;0.70;;;12.20;67.50;;;;;;4978681;28;20502;-76
2023/03/14 12:41:30;;;;;;;1.90;0.70;;;12.20;68.00;;;;;;4978373;28;20438;-75
2023/03/14 12:43:56;;;;;;;2.60;0.70;;;12.50;67.90;;;;;;4978216;28;20430;-75
2023/03/14 12:46:26;;;;;;;1.90;0.70;;;12.90;67.30;;;;;;4979047;28;20481;-77
2023/03/14 12:49:05;;;;;;;2.40;0.70;;;13.20;67.90;;;;;;4978360;28;20449;-76
2023/03/14 12:51:37;;;;;;;2.10;0.80;;;13.20;67.90;;;;;;4977523;28;20427;-75
2023/03/14 12:54:35;;;;;;;1.90;0.70;;;13.20;66.80;;;;;;4977376;28;20453;-77
2023/03/14 12:57:13;;;;;;;1.80;0.60;;;12.90;61.00;;;;;;4977554;28;20561;-77
2023/03/14 12:59:47;;;;;;;1.70;0.60;;;12.80;60.80;;;;;;4977785;28;20474;-77
2023/03/14 13:02:39;;;;;;;2.00;0.80;;;12.80;59.20;;;;;;4977601;28;20442;-76
2023/03/14 13:05:12;;;;;;;2.17;0.70;;;12.80;59.20;;;;;;4977161;28;20478;-76
2023/03/14 13:08:04;;;;;;;1.80;0.70;;;12.70;59.10;;;;;;4977285;28;20430;-77
2023/03/14 13:10:31;;;;;;;1.93;0.67;;;12.60;60.00;;;;;;4977549;28;20438;-75
2023/03/14 13:13:03;;;;;;;1.90;0.60;;;12.50;60.00;;;;;;4977968;28;20458;-77
2023/03/14 13:15:34;;;;;;;2.57;0.87;;;12.70;59.90;;;;;;4978896;28;20485;-77
2023/03/14 13:18:09;;;;;;;1.80;0.70;;;12.70;59.30;;;;;;4979356;28;21060;-78
2023/03/14 13:20:41;;;;;;;2.37;0.80;;;12.90;59.30;;;;;;4980296;28;20450;-77
2023/03/14 13:23:21;;;;;;;2.73;0.70;;;12.80;56.90;;;;;;4980172;28;20439;-76
2023/03/14 13:25:48;;;;;;;2.00;0.70;;;12.60;56.20;;;;;;4979653;28;20474;-76
2023/03/14 13:28:16;;;;;;;2.10;0.70;;;12.20;56.40;;;;;;4979435;28;20447;-76
2023/03/14 13:30:45;;;;;;;2.10;0.70;;;12.00;57.80;;;;;;4980315;28;20458;-76
2023/03/14 13:33:16;;;;;;;2.83;0.90;;;11.90;57.80;;;;;;4980492;28;20450;-75
2023/03/14 13:35:46;;;;;;;1.90;0.73;;;11.80;57.40;;;;;;4979662;28;20478;-77
2023/03/14 13:38:21;;;;;;;2.10;0.80;;;11.70;57.70;;;;;;4979431;28;20486;-76
2023/03/14 13:40:49;;;;;;;2.00;0.80;;;11.50;57.20;;;;;;4979918;28;20453;-76
2023/03/14 13:43:20;;;;;;;2.10;0.70;;;11.30;58.50;;;;;;4979862;28;20457;-76
2023/03/14 13:45:52;;;;;;;2.50;0.90;;;11.30;58.50;;;;;;4977220;28;20490;-77
2023/03/14 13:48:20;;;;;;;2.00;0.77;;;11.10;58.80;;;;;;4976399;28;20497;-77
2023/03/14 13:50:57;;;;;;;2.23;1.13;;;11.10;58.10;;;;;;4975888;28;20952;-77
2023/03/14 13:53:25;;;;;;;2.93;1.07;;;11.00;59.40;;;;;;4976300;28;20442;-75
2023/03/14 13:55:52;;;;;;;4.30;0.70;;;11.00;57.20;;;;;;4976120;28;20521;-75
2023/03/14 13:58:27;;;;;;;2.00;0.90;;;10.90;56.70;;;;;;4976514;28;20481;-77
2023/03/14 14:01:00;;;;;;;2.30;0.87;;;10.80;56.70;;;;;;4975970;28;20454;-77
2023/03/14 14:03:28;;;;;;;2.33;0.83;;;10.70;56.00;;;;;;4975816;28;20454;-76
2023/03/14 14:05:58;;;;;;;2.03;0.80;;;10.60;55.90;;;;;;4975975;28;20470;-75
2023/03/14 14:08:25;;;;;;;2.00;0.80;;;10.70;56.30;;;;;;4975709;28;20435;-76
2023/03/14 14:10:58;;;;;;;2.40;0.83;;;10.60;56.90;;;;;;4976185;28;20458;-78
2023/03/14 14:13:27;;;;;;;1.90;0.60;;;10.60;57.00;;;;;;4976402;28;20419;-77
2023/03/14 14:15:55;;;;;;;4.37;0.70;;;10.40;55.00;;;;;;4975741;28;20482;-76
2023/03/14 14:18:27;;;;;;;2.40;0.70;;;10.30;54.30;;;;;;4975872;28;20497;-77
2023/03/14 14:20:54;;;;;;;2.40;0.90;;;10.20;55.90;;;;;;4975506;28;20943;-76
2023/03/14 14:23:28;;;;;;;2.47;0.70;;;10.10;55.30;;;;;;4975459;28;20450;-75
2023/03/14 14:25:57;;;;;;;2.23;0.70;;;10.00;55.70;;;;;;4975626;28;20569;-76
2023/03/14 14:28:27;;;;;;;1.97;0.77;;;10.10;55.30;;;;;;4976050;28;20503;-76
2023/03/14 14:31:05;;;;;;;2.63;0.70;;;10.10;55.00;;;;;;4975847;28;20454;-77
2023/03/14 14:33:41;;;;;;;2.10;0.70;;;10.00;55.40;;;;;;4975574;28;20435;-77
2023/03/14 14:36:17;;;;;;;2.20;1.00;;;10.00;56.20;;;;;;4975218;28;20855;-75
2023/03/14 14:38:55;;;;;;;1.90;0.70;;;10.10;55.70;;;;;;4974844;28;20506;-74
2023/03/14 14:41:22;;;;;;;4.57;0.93;;;10.10;56.50;;;;;;4975554;28;20431;-74
2023/03/14 14:43:49;;;;;;;3.03;0.70;;;10.20;56.00;;;;;;4976215;28;20505;-74
2023/03/14 14:46:19;;;;;;;1.97;0.77;;;10.20;55.90;;;;;;4975412;28;20474;-76
2023/03/14 14:48:49;;;;;;;2.20;1.00;;;10.30;56.50;;;;;;4975385;28;20457;-76
2023/03/14 14:51:24;;;;;;;1.93;0.97;;;10.20;56.00;;;;;;4975221;28;20471;-74
2023/03/14 14:54:03;;;;;;;2.80;0.80;;;10.20;56.40;;;;;;4975222;28;20754;-76
2023/03/14 14:56:29;;;;;;;2.10;0.90;;;10.00;56.20;;;;;;4974946;28;20477;-75
2023/03/14 14:59:01;;;;;;;1.97;0.80;;;9.90;56.40;;;;;;4975421;28;20482;-78
2023/03/14 15:01:34;;;;;;;2.33;0.83;;;9.90;56.50;;;;;;4975350;28;20908;-76
2023/03/14 15:04:01;;;;;;;4.60;0.90;;;10.00;56.70;;;;;;4975943;28;20815;-76
2023/03/14 15:06:30;;;;;;;2.30;0.80;;;10.00;56.20;;;;;;4975088;28;20470;-76
2023/03/14 15:08:59;;;;;;;3.80;0.80;;;10.20;56.80;;;;;;4975113;28;20451;-76
2023/03/14 15:11:27;;;;;;;2.20;0.70;;;10.40;55.50;;;;;;4975060;28;20562;-76
2023/03/14 15:13:54;;;;;;;2.17;0.80;;;11.10;54.70;;;;;;4974698;28;20446;-76
2023/03/14 15:16:22;;;;;;;2.60;1.10;;;12.30;52.10;;;;;;4974389;28;20565;-76
2023/03/14 15:18:59;;;;;;;2.70;1.10;;;13.00;50.00;;;;;;4974244;28;20847;-74
2023/03/14 15:21:27;;;;;;;3.30;1.30;;;12.90;50.50;;;;;;4974487;28;20434;-76
2023/03/14 15:23:55;;;;;;;3.10;1.27;;;12.50;51.00;;;;;;4974571;28;20541;-77
2023/03/14 15:26:25;;;;;;;2.13;1.00;;;13.10;50.20;;;;;;4974601;28;20478;-76
2023/03/14 15:28:52;;;;;;;2.00;0.80;;;14.10;48.00;;;;;;4974112;28;20430;-75
2023/03/14 15:31:20;;;;;;;2.80;1.30;;;14.70;47.20;;;;;;4974465;28;20458;-76
2023/03/14 15:33:48;;;;;;;2.30;0.93;;;14.40;47.40;;;;;;4974369;28;20640;-76
2023/03/14 15:36:22;;;;;;;2.10;0.93;;;13.60;48.50;;;;;;4974429;28;20478;-75
2023/03/14 15:38:51;;;;;;;2.80;1.07;;;12.80;50.20;;;;;;4973983;28;20929;-73
2023/03/14 15:41:18;;;;;;;3.60;1.20;;;12.30;51.50;;;;;;4974347;28;20936;-75
2023/03/14 15:43:47;;;;;;;2.53;1.10;;;11.70;52.70;;;;;;4974062;28;20447;-75
2023/03/14 15:46:16;;;;;;;2.60;1.00;;;11.40;53.20;;;;;;4974256;28;20477;-75
2023/03/14 15:48:43;;;;;;;3.13;1.00;;;11.00;54.80;;;;;;4974787;28;20454;-77
2023/03/14 15:51:10;;;;;;;2.10;1.10;;;10.70;54.80;;;;;;4974436;28;20547;-75
2023/03/14 15:53:37;;;;;;;3.07;0.90;;;10.50;55.80;;;;;;4974493;28;20526;-77
2023/03/14 15:56:05;;;;;;;2.30;1.00;;;10.40;56.00;;;;;;4974409;28;20470;-76
2023/03/14 15:58:33;;;;;;;2.40;1.10;;;10.30;56.70;;;;;;4973974;28;20531;-76
2023/03/14 16:01:02;;;;;;;2.30;1.00;;;10.20;57.10;;;;;;4974124;28;20477;-77
2023/03/14 16:03:29;;;;;;;1.90;0.83;;;10.10;57.60;;;;;;4973940;28;20450;-76
2023/03/14 16:05:56;;;;;;;3.37;1.00;;;10.00;57.80;;;;;;4973921;28;20837;-76
2023/03/14 16:08:25;;;;;;;5.20;1.53;;;10.00;58.60;;;;;;4974181;28;20455;-78
2023/03/14 16:10:51;;;;;;;1.80;0.70;;;10.00;58.50;;;;;;4973833;28;20822;-76
2023/03/14 16:13:18;;;;;;;2.83;1.20;;;10.20;58.60;;;;;;4973874;28;20822;-76
2023/03/14 16:15:54;;;;;;;2.00;0.80;;;10.30;58.20;;;;;;4974270;28;20477;-77
2023/03/14 16:18:22;;;;;;;3.67;1.27;;;10.50;58.30;;;;;;4974022;28;20520;-77
2023/03/14 16:20:57;;;;;;;2.93;1.13;;;10.70;57.60;;;;;;4974354;28;20482;-77
2023/03/14 16:23:36;;;;;;;2.07;0.83;;;10.70;57.60;;;;;;4978573;28;20477;-77
2023/03/14 16:26:14;;;;;;;2.53;1.23;;;10.80;57.00;;;;;;4979186;28;20477;-76
2023/03/14 16:28:42;;;;;;;5.20;1.30;;;10.90;57.40;;;;;;4984286;28;20442;-77
2023/03/14 16:31:24;;;;;;;;;;;;;;;;;;;;;
2023/03/14 16:33:53;;;;;;;2.50;0.90;;;10.70;57.20;;;;;;4979334;28;20449;-77
2023/03/14 16:39:09;;;;;;;2.70;1.00;;;10.60;56.90;;;;;;4980899;28;20485;-76
2023/03/14 16:41:41;;;;;;;2.40;1.17;;;10.20;57.10;;;;;;4982473;28;20450;-77
2023/03/14 16:44:21;;;;;;;2.63;0.93;;;9.90;58.10;;;;;;4985291;28;20512;-76
2023/03/14 16:46:51;;;;;;;6.70;1.07;;;9.90;59.20;;;;;;4984305;28;20485;-77
2023/03/14 16:49:33;;;;;;;2.57;0.90;;;9.70;59.10;;;;;;4984732;28;20473;-77
2023/03/14 16:52:04;;;;;;;3.17;0.90;;;9.80;59.10;;;;;;4983973;28;20470;-77
2023/03/14 16:54:32;;;;;;;2.20;0.90;;;9.90;58.80;;;;;;4984932;28;20438;-77
2023/03/14 16:56:59;;;;;;;2.00;0.90;;;9.90;59.10;;;;;;4982764;28;20470;-76
2023/03/14 16:59:34;;;;;;;2.10;0.80;;;9.90;58.90;;;;;;4984770;28;20484;-77
2023/03/14 17:02:04;;;;;;;2.23;0.90;;;9.90;59.90;;;;;;4984044;28;20450;-77
2023/03/14 17:04:48;;;;;;;2.00;0.87;;;9.90;59.30;;;;;;4980082;28;20967;-76
2023/03/14 17:07:20;;;;;;;1.97;0.70;;;9.80;60.20;;;;;;4979079;28;20482;-76
2023/03/14 17:09:48;;;;;;;2.33;1.07;;;9.50;61.00;;;;;;4983029;28;20923;-76
2023/03/14 17:12:18;;;;;;;2.40;0.90;;;9.60;61.70;;;;;;4982757;28;20446;-76
2023/03/14 17:14:47;;;;;;;3.03;1.10;;;9.60;62.30;;;;;;4993963;28;20963;-77